Time;durP1;ratioP1;P1;durP2;ratioP2;P2;SDS_P1;SDS_P2;PMS_P1;PMS_P2;Temp;Humidity;BMP_temperature;BMP_pressure;BME280_temperature;BME280_humidity;BME280_pressure;Samples;Min_cycle;Max_cycle;Signal;HPM_P1;HPM_P2
2023/03/30 00:01:11;;;;;;;1.65;0.20;;;1.00;99.90;;;;;;4888814;29;20104;-63
2023/03/30 00:03:38;;;;;;;0.90;0.30;;;1.00;99.90;;;;;;4885723;29;20111;-62
2023/03/30 00:06:06;;;;;;;0.70;0.50;;;1.00;99.90;;;;;;4890359;29;20499;-67
2023/03/30 00:08:33;;;;;;;2.10;0.40;;;1.00;99.90;;;;;;4886497;29;20148;-62
2023/03/30 00:11:06;;;;;;;0.20;0.20;;;1.00;99.90;;;;;;4891544;29;20056;-65
2023/03/30 00:13:35;;;;;;;0.40;0.40;;;0.90;99.90;;;;;;4887186;29;20071;-66
2023/03/30 00:16:03;;;;;;;1.17;0.52;;;1.00;99.90;;;;;;4890554;29;20143;-62
2023/03/30 00:18:32;;;;;;;0.30;0.30;;;1.00;99.90;;;;;;4890247;29;20151;-64
2023/03/30 00:21:01;;;;;;;0.40;0.38;;;0.90;99.90;;;;;;4890022;29;20142;-63
2023/03/30 00:23:29;;;;;;;1.48;0.50;;;0.90;99.90;;;;;;4890450;29;20076;-69
2023/03/30 00:25:56;;;;;;;0.45;0.45;;;0.90;99.90;;;;;;4890516;29;20053;-66
2023/03/30 00:28:24;;;;;;;0.55;0.55;;;0.90;99.90;;;;;;4891137;29;20079;-67
2023/03/30 00:30:52;;;;;;;0.85;0.57;;;0.90;99.90;;;;;;4891953;29;20468;-64
2023/03/30 00:33:19;;;;;;;0.40;0.40;;;0.90;99.90;;;;;;4886341;29;20132;-64
2023/03/30 00:35:59;;;;;;;0.65;0.65;;;0.90;99.90;;;;;;4888917;29;20060;-63
2023/03/30 00:38:26;;;;;;;0.60;0.40;;;0.90;99.90;;;;;;4890291;29;20076;-65
2023/03/30 00:40:56;;;;;;;0.77;0.57;;;1.00;99.90;;;;;;4881150;29;20061;-63
2023/03/30 00:43:24;;;;;;;0.75;0.70;;;0.90;99.90;;;;;;4881484;29;20052;-66
2023/03/30 00:45:51;;;;;;;2.92;0.63;;;1.00;99.90;;;;;;4889165;29;20044;-63
2023/03/30 00:48:41;;;;;;;0.60;0.60;;;1.00;99.90;;;;;;4891319;29;20052;-70
2023/03/30 00:51:10;;;;;;;0.30;0.30;;;1.00;99.90;;;;;;4888435;29;20072;-65
2023/03/30 00:53:40;;;;;;;0.93;0.50;;;1.00;99.90;;;;;;4888292;29;20067;-70
2023/03/30 00:56:10;;;;;;;1.08;0.70;;;1.00;99.90;;;;;;4887528;29;20139;-65
2023/03/30 00:58:38;;;;;;;0.45;0.45;;;1.00;99.90;;;;;;4887620;29;20411;-70
2023/03/30 01:01:09;;;;;;;0.98;0.90;;;1.00;99.90;;;;;;4890116;29;20056;-67
2023/03/30 01:03:42;;;;;;;2.33;1.25;;;1.00;99.90;;;;;;4881944;29;20045;-67
2023/03/30 01:06:11;;;;;;;0.73;0.73;;;1.10;99.90;;;;;;4886197;29;20113;-63
2023/03/30 01:08:39;;;;;;;1.23;1.13;;;1.00;99.90;;;;;;4890556;29;20063;-66
2023/03/30 01:11:07;;;;;;;0.93;0.88;;;1.10;99.90;;;;;;4888415;29;20501;-71
2023/03/30 01:13:41;;;;;;;1.10;1.00;;;1.00;99.90;;;;;;4888457;29;20467;-68
2023/03/30 01:16:26;;;;;;;2.15;1.40;;;1.10;99.90;;;;;;4884724;29;20116;-65
2023/03/30 01:19:02;;;;;;;0.90;0.80;;;1.10;99.90;;;;;;4890157;29;20107;-65
2023/03/30 01:21:58;;;;;;;1.50;1.00;;;1.10;99.90;;;;;;4884299;29;20604;-73
2023/03/30 01:24:41;;;;;;;1.27;0.98;;;1.10;99.90;;;;;;4855998;29;20132;-66
2023/03/30 01:27:24;;;;;;;2.55;2.22;;;1.10;99.90;;;;;;4888354;29;20059;-64
2023/03/30 01:30:29;;;;;;;1.23;1.13;;;1.10;99.90;;;;;;4885185;29;20081;-64
2023/03/30 01:33:30;;;;;;;0.95;0.85;;;1.10;99.90;;;;;;4885112;29;20055;-64
2023/03/30 01:36:17;;;;;;;1.98;0.93;;;1.20;99.90;;;;;;4885470;29;20062;-62
2023/03/30 01:39:18;;;;;;;0.80;0.80;;;1.20;99.90;;;;;;4893126;29;20080;-65
2023/03/30 01:42:03;;;;;;;0.95;0.95;;;1.20;99.90;;;;;;4881325;29;20083;-63
2023/03/30 01:44:48;;;;;;;0.60;0.60;;;1.20;99.90;;;;;;4888152;29;20065;-67
2023/03/30 01:47:35;;;;;;;1.00;0.85;;;1.20;99.90;;;;;;4884223;29;20108;-66
2023/03/30 01:50:10;;;;;;;1.65;0.93;;;1.20;99.90;;;;;;4887187;29;20152;-69
2023/03/30 01:52:52;;;;;;;0.60;0.57;;;1.20;99.90;;;;;;4887682;29;20052;-64
2023/03/30 01:55:27;;;;;;;1.00;0.80;;;1.20;99.90;;;;;;4883727;29;20419;-72
2023/03/30 01:58:11;;;;;;;3.15;0.90;;;1.20;99.90;;;;;;4880131;29;20140;-66
2023/03/30 02:00:42;;;;;;;0.80;0.77;;;1.20;99.90;;;;;;4869953;29;20079;-69
2023/03/30 02:03:15;;;;;;;1.65;0.70;;;1.20;99.90;;;;;;4886013;29;20056;-61
2023/03/30 02:05:45;;;;;;;0.63;0.57;;;1.20;99.90;;;;;;4886874;29;20638;-64
2023/03/30 02:08:17;;;;;;;0.88;0.82;;;1.30;99.90;;;;;;4882305;29;20148;-65
2023/03/30 02:10:46;;;;;;;3.50;0.80;;;1.20;99.90;;;;;;4885480;29;20068;-71
2023/03/30 02:13:15;;;;;;;2.63;1.33;;;1.20;99.90;;;;;;4886715;29;20662;-73
2023/03/30 02:15:47;;;;;;;0.77;0.77;;;1.20;99.90;;;;;;4889560;29;20056;-65
2023/03/30 02:18:15;;;;;;;1.45;1.08;;;1.20;99.90;;;;;;4882567;29;20057;-74
2023/03/30 02:20:41;;;;;;;0.60;0.60;;;1.20;99.90;;;;;;4888980;29;20484;-63
2023/03/30 02:23:08;;;;;;;1.73;1.10;;;1.30;99.90;;;;;;4888526;29;20092;-65
2023/03/30 02:25:37;;;;;;;0.55;0.52;;;1.30;99.90;;;;;;4885247;29;20044;-67
2023/03/30 02:28:06;;;;;;;1.02;0.70;;;1.30;99.90;;;;;;4889367;29;20048;-63
2023/03/30 02:30:38;;;;;;;0.70;0.70;;;1.30;99.90;;;;;;4884999;29;20056;-67
2023/03/30 02:33:08;;;;;;;1.23;0.60;;;1.30;99.90;;;;;;4886047;29;20045;-64
2023/03/30 02:35:50;;;;;;;1.25;0.60;;;1.30;99.90;;;;;;4872138;29;20059;-64
2023/03/30 02:38:35;;;;;;;1.35;0.80;;;1.30;99.90;;;;;;4892123;29;20066;-67
2023/03/30 02:41:34;;;;;;;1.80;0.90;;;1.30;99.90;;;;;;4886450;29;20171;-64
2023/03/30 02:44:18;;;;;;;1.73;0.50;;;1.30;99.90;;;;;;4875829;29;20068;-71
2023/03/30 02:46:56;;;;;;;0.60;0.50;;;1.30;99.90;;;;;;4887977;29;20060;-69
2023/03/30 02:49:41;;;;;;;0.95;0.95;;;1.30;99.90;;;;;;4890256;29;20064;-62
2023/03/30 02:52:35;;;;;;;0.98;0.65;;;1.30;99.90;;;;;;4871091;29;20533;-66
2023/03/30 02:55:15;;;;;;;2.05;0.68;;;1.30;99.90;;;;;;4889073;29;20840;-64
2023/03/30 02:58:47;;;;;;;1.00;0.73;;;1.30;99.90;;;;;;4884521;29;20525;-66
2023/03/30 03:01:42;;;;;;;3.10;1.00;;;1.40;99.90;;;;;;4832152;29;20076;-66
2023/03/30 03:04:17;;;;;;;0.95;0.40;;;1.40;99.90;;;;;;4877115;29;20590;-66
2023/03/30 03:07:03;;;;;;;1.33;0.70;;;1.40;99.90;;;;;;4893750;29;20090;-63
2023/03/30 03:09:30;;;;;;;2.72;0.82;;;1.40;99.90;;;;;;4874390;29;20052;-68
2023/03/30 03:11:57;;;;;;;1.00;0.90;;;1.40;99.90;;;;;;4892493;29;20059;-64
2023/03/30 03:14:29;;;;;;;3.17;1.10;;;1.50;99.90;;;;;;4877417;29;20499;-63
2023/03/30 03:16:56;;;;;;;3.08;1.13;;;1.50;99.90;;;;;;4888853;29;20514;-67
2023/03/30 03:19:31;;;;;;;4.25;1.40;;;1.50;99.90;;;;;;4870659;29;20592;-66
2023/03/30 03:21:58;;;;;;;4.43;1.45;;;1.60;99.90;;;;;;4885145;29;20097;-64
2023/03/30 03:24:27;;;;;;;5.90;1.13;;;1.50;99.90;;;;;;4872849;29;20065;-65
2023/03/30 03:27:26;;;;;;;1.27;1.17;;;1.60;99.90;;;;;;4885089;29;20056;-72
2023/03/30 03:30:12;;;;;;;2.35;1.60;;;1.60;99.90;;;;;;4887897;29;20049;-67
2023/03/30 03:32:53;;;;;;;2.97;1.60;;;1.50;99.90;;;;;;4882962;29;20068;-63
2023/03/30 03:35:23;;;;;;;3.13;1.58;;;1.60;99.90;;;;;;4875174;29;20517;-63
2023/03/30 03:37:50;;;;;;;1.33;1.00;;;1.60;99.90;;;;;;4896078;29;20053;-63
2023/03/30 03:40:17;;;;;;;2.22;1.52;;;1.50;99.90;;;;;;4892169;29;20060;-64
2023/03/30 03:42:44;;;;;;;2.05;0.90;;;1.50;99.90;;;;;;4874685;29;20388;-64
2023/03/30 03:45:13;;;;;;;1.58;1.30;;;1.40;99.90;;;;;;4886341;29;20578;-64
2023/03/30 03:47:55;;;;;;;3.10;1.25;;;1.40;99.90;;;;;;4889453;29;20111;-69
2023/03/30 03:50:40;;;;;;;3.70;2.13;;;1.40;99.90;;;;;;4886491;29;20064;-64
2023/03/30 03:53:08;;;;;;;4.00;1.70;;;1.40;99.90;;;;;;4874136;29;20052;-69
2023/03/30 03:55:36;;;;;;;4.60;1.40;;;1.40;99.90;;;;;;4868743;29;20068;-63
2023/03/30 03:58:04;;;;;;;4.93;1.42;;;1.40;99.90;;;;;;4890328;29;20049;-65
2023/03/30 04:00:32;;;;;;;1.42;1.13;;;1.40;99.90;;;;;;4886558;29;20499;-69
2023/03/30 04:02:59;;;;;;;1.45;1.15;;;1.30;99.90;;;;;;4888078;29;20080;-64
2023/03/30 04:05:26;;;;;;;1.55;1.33;;;1.30;99.90;;;;;;4872798;29;20056;-65
2023/03/30 04:07:55;;;;;;;7.35;1.85;;;1.30;99.90;;;;;;4890268;29;20091;-64
2023/03/30 04:10:23;;;;;;;7.45;1.98;;;1.30;99.90;;;;;;4893850;29;20119;-65
2023/03/30 04:13:01;;;;;;;4.88;1.52;;;1.30;99.90;;;;;;4893857;29;20658;-72
2023/03/30 04:15:46;;;;;;;1.75;1.60;;;1.30;99.90;;;;;;4886712;29;20188;-67
2023/03/30 04:18:32;;;;;;;3.35;1.83;;;1.30;99.90;;;;;;4887413;29;20605;-62
2023/03/30 04:21:11;;;;;;;2.45;1.15;;;1.20;99.90;;;;;;4870302;29;20112;-63
2023/03/30 04:23:49;;;;;;;2.38;1.20;;;1.20;99.90;;;;;;4876156;29;20056;-66
2023/03/30 04:26:29;;;;;;;2.67;1.48;;;1.20;99.90;;;;;;4882749;29;20061;-61
2023/03/30 04:29:07;;;;;;;2.67;1.55;;;1.20;99.90;;;;;;4886573;29;20067;-62
2023/03/30 04:31:45;;;;;;;1.73;1.20;;;1.20;99.90;;;;;;4884584;29;20056;-64
2023/03/30 04:34:42;;;;;;;3.42;2.78;;;1.20;99.90;;;;;;4889028;29;20057;-71
2023/03/30 04:37:30;;;;;;;2.25;1.70;;;1.20;99.90;;;;;;4885539;29;23537;-68
2023/03/30 04:40:17;;;;;;;4.05;1.80;;;1.20;99.90;;;;;;4876985;29;20049;-67
2023/03/30 04:43:03;;;;;;;4.80;1.67;;;1.20;99.90;;;;;;4887733;29;20507;-65
2023/03/30 04:45:53;;;;;;;3.97;2.10;;;1.20;99.90;;;;;;4882133;29;20063;-64
2023/03/30 04:48:36;;;;;;;2.90;1.55;;;1.30;99.90;;;;;;4881506;29;20053;-64
2023/03/30 04:51:22;;;;;;;3.60;1.75;;;1.20;99.90;;;;;;4889849;29;20063;-64
2023/03/30 04:54:08;;;;;;;4.75;1.65;;;1.20;99.90;;;;;;4886904;29;20051;-70
2023/03/30 04:56:57;;;;;;;3.35;2.10;;;1.20;99.90;;;;;;4884576;29;20048;-63
2023/03/30 04:59:39;;;;;;;2.47;1.45;;;1.30;99.90;;;;;;4886910;29;20127;-63
2023/03/30 05:02:29;;;;;;;4.25;2.60;;;1.20;99.90;;;;;;4886604;29;20048;-72
2023/03/30 05:05:25;;;;;;;3.10;1.73;;;1.30;99.90;;;;;;4877433;29;20092;-62
2023/03/30 05:07:52;;;;;;;2.70;2.40;;;1.20;99.90;;;;;;4888693;29;20056;-70
2023/03/30 05:10:27;;;;;;;2.80;2.40;;;1.30;99.90;;;;;;4874668;29;20044;-64
2023/03/30 05:13:08;;;;;;;2.00;1.80;;;1.20;99.90;;;;;;4891208;29;20061;-65
2023/03/30 05:15:55;;;;;;;6.13;2.58;;;1.20;99.90;;;;;;4886059;29;20051;-63
2023/03/30 05:18:38;;;;;;;3.55;2.80;;;1.30;99.90;;;;;;4885907;29;20051;-65
2023/03/30 05:21:20;;;;;;;4.25;2.35;;;1.30;99.90;;;;;;4880209;29;20045;-67
2023/03/30 05:24:13;;;;;;;2.58;2.28;;;1.30;99.90;;;;;;4871358;29;20903;-66
2023/03/30 05:26:58;;;;;;;2.38;1.88;;;1.30;99.90;;;;;;4885462;29;20059;-66
2023/03/30 05:29:45;;;;;;;4.85;2.58;;;1.30;99.90;;;;;;4854762;29;20045;-64
2023/03/30 05:32:34;;;;;;;3.47;1.90;;;1.40;99.90;;;;;;4870712;29;20056;-67
2023/03/30 05:35:40;;;;;;;2.85;1.55;;;1.40;99.90;;;;;;4841716;29;20057;-66
2023/03/30 05:38:30;;;;;;;2.15;1.95;;;1.40;99.90;;;;;;4819276;29;20088;-67
2023/03/30 05:41:10;;;;;;;;;;;1.40;99.90;;;;;;4856481;29;20132;-64
2023/03/30 05:43:56;;;;;;;4.85;2.33;;;1.40;99.90;;;;;;4887211;29;19934;-68
2023/03/30 05:46:49;;;;;;;6.80;2.92;;;1.50;99.90;;;;;;4853759;29;20434;-64
2023/03/30 05:49:36;;;;;;;2.63;1.58;;;1.50;99.90;;;;;;4872270;29;20920;-64
2023/03/30 05:52:14;;;;;;;4.13;2.47;;;1.40;99.90;;;;;;4882336;29;20542;-66
2023/03/30 05:55:14;;;;;;;2.57;2.30;;;1.50;99.90;;;;;;4884444;29;20048;-64
2023/03/30 05:58:02;;;;;;;3.05;2.85;;;1.50;99.90;;;;;;4884888;29;20056;-61
2023/03/30 06:00:51;;;;;;;3.30;2.13;;;1.50;99.90;;;;;;4888002;29;20053;-68
2023/03/30 06:03:28;;;;;;;6.63;2.60;;;1.50;99.90;;;;;;4879719;29;20521;-68
2023/03/30 06:05:56;;;;;;;2.65;1.58;;;1.60;99.90;;;;;;4884200;29;20450;-62
2023/03/30 06:08:23;;;;;;;2.00;1.73;;;1.60;99.90;;;;;;4885701;29;20470;-65
2023/03/30 06:10:56;;;;;;;4.82;2.70;;;1.60;99.90;;;;;;4876683;29;20104;-64
2023/03/30 06:13:26;;;;;;;3.80;2.95;;;1.60;99.90;;;;;;4885467;29;20056;-63
2023/03/30 06:15:54;;;;;;;5.15;3.20;;;1.60;99.90;;;;;;4887308;29;20504;-63
2023/03/30 06:18:24;;;;;;;;;;;1.70;99.90;;;;;;4887095;29;20089;-62
2023/03/30 06:20:56;;;;;;;3.85;1.98;;;1.70;99.90;;;;;;4886500;29;19927;-66
2023/03/30 06:23:23;;;;;;;2.80;1.70;;;1.70;99.90;;;;;;4887163;29;20056;-68
2023/03/30 06:25:54;;;;;;;2.00;1.80;;;1.70;99.90;;;;;;4874001;29;20104;-63
2023/03/30 06:28:27;;;;;;;2.38;2.17;;;1.70;99.90;;;;;;4873488;29;20554;-64
2023/03/30 06:30:54;;;;;;;2.10;1.90;;;1.80;99.90;;;;;;4877941;29;20495;-63
2023/03/30 06:33:24;;;;;;;2.95;2.10;;;1.80;99.90;;;;;;4884588;29;20056;-62
2023/03/30 06:35:56;;;;;;;2.65;2.00;;;1.90;99.90;;;;;;4881056;29;20059;-64
2023/03/30 06:38:23;;;;;;;2.20;1.95;;;1.90;99.90;;;;;;4860258;29;20066;-63
2023/03/30 06:40:52;;;;;;;4.47;2.17;;;2.00;99.90;;;;;;4873145;29;20052;-66
2023/03/30 06:43:24;;;;;;;4.18;2.35;;;2.00;99.90;;;;;;4890245;29;20484;-70
2023/03/30 06:45:57;;;;;;;3.60;2.00;;;2.10;99.90;;;;;;4887504;29;20539;-62
2023/03/30 06:48:25;;;;;;;2.25;1.75;;;2.10;99.90;;;;;;4873911;29;20533;-65
2023/03/30 06:51:15;;;;;;;5.88;1.75;;;2.10;99.90;;;;;;4887477;29;20048;-67
2023/03/30 06:53:43;;;;;;;2.45;2.25;;;2.00;99.90;;;;;;4889759;29;20063;-62
2023/03/30 06:56:10;;;;;;;2.40;1.67;;;2.00;99.90;;;;;;4887505;29;20081;-63
2023/03/30 06:58:51;;;;;;;3.53;2.45;;;2.00;99.90;;;;;;4873081;29;20079;-66
2023/03/30 07:01:18;;;;;;;4.53;2.13;;;2.10;99.90;;;;;;4885984;29;20502;-69
2023/03/30 07:04:04;;;;;;;2.58;1.95;;;2.10;99.90;;;;;;4888934;29;20288;-62
2023/03/30 07:06:50;;;;;;;3.67;1.83;;;2.10;99.90;;;;;;4883874;29;20624;-69
2023/03/30 07:09:17;;;;;;;7.20;2.47;;;2.10;99.90;;;;;;4883817;29;20507;-71
2023/03/30 07:11:44;;;;;;;2.03;1.20;;;2.20;99.90;;;;;;4885672;29;20048;-68
2023/03/30 07:14:11;;;;;;;1.83;1.27;;;2.10;99.90;;;;;;4891665;29;20072;-65
2023/03/30 07:16:39;;;;;;;1.60;1.30;;;2.10;99.90;;;;;;4865949;29;20064;-66
2023/03/30 07:19:06;;;;;;;1.63;1.52;;;2.20;99.90;;;;;;4885565;29;20824;-67
2023/03/30 07:21:33;;;;;;;2.28;1.60;;;2.30;99.90;;;;;;4888602;29;20116;-63
2023/03/30 07:24:00;;;;;;;2.33;1.52;;;2.30;99.90;;;;;;4873925;29;20060;-64
2023/03/30 07:26:34;;;;;;;2.70;1.45;;;2.40;99.90;;;;;;4868137;29;20443;-61
2023/03/30 07:29:06;;;;;;;2.47;1.40;;;2.50;99.90;;;;;;4866298;29;20050;-62
2023/03/30 07:31:36;;;;;;;2.65;1.50;;;2.60;99.90;;;;;;4868361;29;20094;-63
2023/03/30 07:34:04;;;;;;;2.42;1.42;;;2.60;99.90;;;;;;4871336;29;20056;-66
2023/03/30 07:36:36;;;;;;;1.35;1.25;;;2.70;99.90;;;;;;4895031;29;20167;-62
2023/03/30 07:39:05;;;;;;;1.35;1.15;;;2.60;99.90;;;;;;4888712;29;20074;-64
2023/03/30 07:41:34;;;;;;;1.85;1.45;;;2.70;99.90;;;;;;4885125;29;20076;-61
2023/03/30 07:44:01;;;;;;;2.38;1.67;;;2.70;99.90;;;;;;4886413;29;20079;-71
2023/03/30 07:46:28;;;;;;;2.35;1.20;;;2.70;99.90;;;;;;4880620;29;20435;-65
2023/03/30 07:48:55;;;;;;;2.63;0.98;;;2.80;99.90;;;;;;4886292;29;20112;-62
2023/03/30 07:51:23;;;;;;;2.65;1.50;;;2.80;99.90;;;;;;4871668;29;20052;-68
2023/03/30 07:54:25;;;;;;;1.95;1.20;;;2.90;99.90;;;;;;4879317;29;20044;-61
2023/03/30 07:57:07;;;;;;;1.25;1.10;;;2.80;99.90;;;;;;4886450;29;20048;-61
2023/03/30 07:59:34;;;;;;;1.48;1.25;;;2.80;99.90;;;;;;4868610;29;20053;-65
2023/03/30 08:02:13;;;;;;;3.67;1.30;;;2.80;99.90;;;;;;4873353;29;20049;-67
2023/03/30 08:04:52;;;;;;;1.20;1.10;;;2.80;99.90;;;;;;4884256;29;20143;-61
2023/03/30 08:07:27;;;;;;;1.23;1.13;;;2.80;99.90;;;;;;4880766;29;20136;-63
2023/03/30 08:10:01;;;;;;;1.60;1.45;;;2.80;99.90;;;;;;4869949;29;20472;-65
2023/03/30 08:12:28;;;;;;;3.85;1.63;;;2.80;99.90;;;;;;4884446;29;20071;-61
2023/03/30 08:14:55;;;;;;;1.60;1.50;;;2.80;99.90;;;;;;4884052;29;20055;-62
2023/03/30 08:17:22;;;;;;;1.23;1.10;;;2.90;99.90;;;;;;4883585;29;20064;-64
2023/03/30 08:19:50;;;;;;;1.42;1.33;;;2.90;99.90;;;;;;4888560;29;20063;-61
2023/03/30 08:22:17;;;;;;;2.30;1.30;;;3.00;99.90;;;;;;4888167;29;20057;-69
2023/03/30 08:24:43;;;;;;;0.90;0.90;;;3.00;99.90;;;;;;4888983;29;20079;-64
2023/03/30 08:27:10;;;;;;;1.45;1.20;;;3.00;99.90;;;;;;4886396;29;20040;-62
2023/03/30 08:29:37;;;;;;;1.40;1.30;;;3.00;99.90;;;;;;4887356;29;20456;-69
2023/03/30 08:32:04;;;;;;;2.65;1.88;;;3.20;99.90;;;;;;4885686;29;20156;-63
2023/03/30 08:34:31;;;;;;;1.13;1.02;;;3.20;99.90;;;;;;4886921;29;20056;-65
2023/03/30 08:37:01;;;;;;;1.63;1.20;;;3.30;99.90;;;;;;4889735;29;20055;-63
2023/03/30 08:39:31;;;;;;;1.90;1.23;;;3.30;99.90;;;;;;4886284;29;20143;-67
2023/03/30 08:42:04;;;;;;;1.33;1.23;;;3.40;99.90;;;;;;4889902;29;20515;-67
2023/03/30 08:44:34;;;;;;;1.42;1.10;;;3.50;99.90;;;;;;4887264;29;20108;-65
2023/03/30 08:47:04;;;;;;;3.83;1.43;;;3.50;99.90;;;;;;4885954;29;20052;-70
2023/03/30 08:49:37;;;;;;;1.40;1.30;;;3.60;99.90;;;;;;4883697;29;20370;-69
2023/03/30 08:52:05;;;;;;;1.42;1.10;;;3.60;99.90;;;;;;4887118;29;20083;-67
2023/03/30 08:54:33;;;;;;;1.58;1.13;;;3.70;99.90;;;;;;4888455;29;20055;-66
2023/03/30 08:57:14;;;;;;;1.90;1.25;;;3.70;99.90;;;;;;4887114;29;20100;-63
2023/03/30 09:00:10;;;;;;;14.95;1.63;;;3.70;99.90;;;;;;4880373;29;20518;-69
2023/03/30 09:02:45;;;;;;;3.60;1.48;;;3.80;99.90;;;;;;4884291;29;20451;-71
2023/03/30 09:05:21;;;;;;;2.55;0.90;;;3.90;99.90;;;;;;4881930;29;20084;-63
2023/03/30 09:08:18;;;;;;;1.20;1.05;;;4.00;99.90;;;;;;4887175;29;20085;-64
2023/03/30 09:11:00;;;;;;;1.73;0.95;;;4.00;99.90;;;;;;4887072;29;20080;-66
2023/03/30 09:13:38;;;;;;;1.33;1.15;;;4.10;99.90;;;;;;4885705;29;20112;-63
2023/03/30 09:16:20;;;;;;;1.48;1.08;;;4.20;99.90;;;;;;4887662;29;20505;-67
2023/03/30 09:18:52;;;;;;;3.65;2.80;;;4.40;99.90;;;;;;4883170;29;20117;-67
2023/03/30 09:21:21;;;;;;;5.25;1.30;;;4.50;99.90;;;;;;4884781;29;20301;-65
2023/03/30 09:23:49;;;;;;;5.00;2.43;;;4.40;99.90;;;;;;4886488;29;20052;-64
2023/03/30 09:26:31;;;;;;;1.77;1.17;;;4.50;99.90;;;;;;4887290;29;20519;-66
2023/03/30 09:29:07;;;;;;;3.55;1.10;;;4.60;99.90;;;;;;4886325;29;20150;-64
2023/03/30 09:31:42;;;;;;;3.47;1.15;;;4.60;99.90;;;;;;4868447;29;20074;-73
2023/03/30 09:34:40;;;;;;;5.65;1.00;;;4.70;99.90;;;;;;4888706;29;20048;-62
2023/03/30 09:37:20;;;;;;;1.13;0.80;;;4.80;99.90;;;;;;4886316;29;20110;-63
2023/03/30 09:39:51;;;;;;;1.35;0.52;;;4.80;99.90;;;;;;4885777;29;20049;-66
2023/03/30 09:42:22;;;;;;;6.43;1.85;;;4.80;99.90;;;;;;4886576;29;20111;-65
2023/03/30 09:45:10;;;;;;;1.77;1.05;;;4.90;99.90;;;;;;4888578;29;20044;-63
2023/03/30 09:47:38;;;;;;;1.58;0.77;;;5.00;99.90;;;;;;4887827;29;20073;-66
2023/03/30 09:50:07;;;;;;;1.50;1.40;;;5.00;99.90;;;;;;4891772;29;20092;-62
2023/03/30 09:52:40;;;;;;;2.45;0.88;;;4.90;99.90;;;;;;4888472;29;20056;-71
2023/03/30 09:55:20;;;;;;;2.67;0.93;;;4.90;99.90;;;;;;4891606;29;20763;-66
2023/03/30 09:57:48;;;;;;;1.27;1.17;;;5.00;99.90;;;;;;4891365;29;20475;-65
2023/03/30 10:00:28;;;;;;;3.70;1.35;;;5.00;99.90;;;;;;4890715;29;20374;-62
2023/03/30 10:03:01;;;;;;;6.95;1.63;;;5.00;99.90;;;;;;4891124;29;20057;-63
2023/03/30 10:05:30;;;;;;;5.35;1.83;;;5.00;99.90;;;;;;4888245;29;20052;-66
2023/03/30 10:08:04;;;;;;;3.75;2.00;;;5.00;99.90;;;;;;4889307;29;20048;-63
2023/03/30 10:10:34;;;;;;;1.95;1.40;;;4.90;99.90;;;;;;4889873;29;20499;-67
2023/03/30 10:13:07;;;;;;;2.47;2.13;;;4.90;99.90;;;;;;4890416;29;20060;-67
2023/03/30 10:15:38;;;;;;;5.03;2.35;;;4.80;99.90;;;;;;4889922;29;20049;-62
2023/03/30 10:18:35;;;;;;;7.40;1.15;;;4.80;99.90;;;;;;4887880;29;20070;-67
2023/03/30 10:21:05;;;;;;;2.40;0.90;;;4.80;99.90;;;;;;4882345;29;20492;-72
2023/03/30 10:23:38;;;;;;;2.38;0.70;;;4.80;99.90;;;;;;4888620;29;20055;-63
2023/03/30 10:26:17;;;;;;;3.30;1.27;;;4.80;99.90;;;;;;4889083;29;20064;-66
2023/03/30 10:29:06;;;;;;;1.67;1.08;;;4.70;99.90;;;;;;4891237;29;20144;-66
2023/03/30 10:31:35;;;;;;;1.67;1.13;;;4.80;99.90;;;;;;4886879;29;20052;-67
2023/03/30 10:34:12;;;;;;;0.73;0.70;;;4.70;99.90;;;;;;4889327;29;20147;-63
2023/03/30 10:36:40;;;;;;;3.25;1.10;;;4.70;99.90;;;;;;4889010;29;20057;-65
2023/03/30 10:39:13;;;;;;;5.35;1.63;;;4.60;99.90;;;;;;4890988;29;20058;-63
2023/03/30 10:41:41;;;;;;;5.07;1.55;;;4.60;99.90;;;;;;4888097;29;20135;-71
2023/03/30 10:44:23;;;;;;;5.38;1.35;;;4.70;99.90;;;;;;4889954;29;20896;-66
2023/03/30 10:46:54;;;;;;;3.10;1.15;;;4.70;99.90;;;;;;4891252;29;20590;-64
2023/03/30 10:49:27;;;;;;;5.40;1.70;;;4.70;99.90;;;;;;4887938;29;20379;-65
2023/03/30 10:52:38;;;;;;;5.90;1.05;;;4.80;99.90;;;;;;4890141;29;20509;-65
2023/03/30 10:55:47;;;;;;;4.97;2.15;;;4.90;99.90;;;;;;4884537;29;20054;-71
2023/03/30 10:58:38;;;;;;;16.88;2.00;;;4.90;99.90;;;;;;4890728;29;20080;-66
2023/03/30 11:01:22;;;;;;;2.78;0.93;;;4.80;99.90;;;;;;4890174;29;20143;-67
2023/03/30 11:03:56;;;;;;;2.80;2.10;;;4.80;99.90;;;;;;4887127;29;20057;-64
2023/03/30 11:06:31;;;;;;;0.90;0.73;;;4.80;99.90;;;;;;4890057;29;20070;-63
2023/03/30 11:09:02;;;;;;;4.05;1.05;;;4.90;99.90;;;;;;4889103;29;20376;-66
2023/03/30 11:11:38;;;;;;;6.70;0.95;;;5.10;99.90;;;;;;4886483;29;20123;-73
2023/03/30 11:14:15;;;;;;;8.25;1.15;;;5.30;99.90;;;;;;4890582;29;20139;-67
2023/03/30 11:16:56;;;;;;;2.00;1.40;;;5.50;99.90;;;;;;4888731;29;20063;-70
2023/03/30 11:19:30;;;;;;;3.97;2.35;;;5.50;99.90;;;;;;4886436;29;20514;-62
2023/03/30 11:22:01;;;;;;;2.05;1.33;;;5.50;99.90;;;;;;4885487;29;20176;-68
2023/03/30 11:24:28;;;;;;;1.88;0.75;;;5.50;99.90;;;;;;4886639;29;20131;-63
2023/03/30 11:27:02;;;;;;;3.63;1.00;;;5.40;99.90;;;;;;4889009;29;20482;-66
2023/03/30 11:29:47;;;;;;;2.55;1.02;;;5.40;99.90;;;;;;4881903;29;20056;-70
2023/03/30 11:32:32;;;;;;;2.17;1.48;;;5.40;99.90;;;;;;4890020;29;20053;-64
2023/03/30 11:35:09;;;;;;;3.20;1.13;;;5.30;99.90;;;;;;4888868;29;20777;-65
2023/03/30 11:38:13;;;;;;;5.45;1.35;;;5.40;99.90;;;;;;4889078;29;20097;-64
2023/03/30 11:40:45;;;;;;;13.32;1.92;;;5.60;99.90;;;;;;4886861;29;20071;-66
2023/03/30 11:43:14;;;;;;;3.47;0.85;;;5.70;99.90;;;;;;4882787;29;20076;-63
2023/03/30 11:45:56;;;;;;;3.67;1.10;;;5.70;99.90;;;;;;4886113;29;20061;-67
2023/03/30 11:48:35;;;;;;;5.22;1.45;;;5.60;99.90;;;;;;4886086;29;20104;-66
2023/03/30 11:51:08;;;;;;;2.03;1.42;;;5.40;99.90;;;;;;4885168;29;20136;-72
2023/03/30 11:54:08;;;;;;;3.83;1.10;;;5.40;99.90;;;;;;4884510;29;20047;-67
2023/03/30 11:57:09;;;;;;;10.75;2.40;;;5.50;99.90;;;;;;4885122;29;20127;-64
2023/03/30 11:59:43;;;;;;;5.03;1.92;;;5.40;99.90;;;;;;4885414;29;20053;-67
2023/03/30 12:02:18;;;;;;;6.93;1.80;;;5.40;99.90;;;;;;4886271;29;20167;-68
2023/03/30 12:04:48;;;;;;;3.45;1.58;;;5.40;99.90;;;;;;4886580;29;20233;-70
2023/03/30 12:07:54;;;;;;;3.80;1.67;;;5.30;99.90;;;;;;4881884;29;20136;-67
2023/03/30 12:10:40;;;;;;;1.55;0.82;;;5.20;99.90;;;;;;4878910;29;20080;-74
2023/03/30 12:13:13;;;;;;;4.28;1.00;;;5.20;99.90;;;;;;4882785;29;20051;-67
2023/03/30 12:16:05;;;;;;;1.80;1.30;;;5.30;99.90;;;;;;4886359;29;20143;-72
2023/03/30 12:18:45;;;;;;;12.25;1.52;;;5.20;99.90;;;;;;4885164;29;20097;-68
2023/03/30 12:21:28;;;;;;;0.93;0.85;;;5.30;99.90;;;;;;4883766;29;20080;-62
2023/03/30 12:24:24;;;;;;;1.10;1.00;;;5.30;99.90;;;;;;4885912;29;20055;-70
2023/03/30 12:26:52;;;;;;;5.07;1.75;;;5.30;99.90;;;;;;4886503;29;20415;-63
2023/03/30 12:29:50;;;;;;;3.05;1.17;;;5.30;99.90;;;;;;4883150;29;20511;-63
2023/03/30 12:32:25;;;;;;;3.55;1.33;;;5.50;99.90;;;;;;4884435;29;20053;-68
2023/03/30 12:34:56;;;;;;;5.82;1.50;;;5.40;99.90;;;;;;4881958;29;20160;-65
2023/03/30 12:37:33;;;;;;;4.85;1.65;;;5.40;99.90;;;;;;4888510;29;21865;-63
2023/03/30 12:40:13;;;;;;;1.92;1.10;;;5.50;99.90;;;;;;4885464;29;20093;-68
2023/03/30 12:42:54;;;;;;;7.27;1.70;;;5.40;99.90;;;;;;4886185;29;20896;-63
2023/03/30 12:45:32;;;;;;;8.20;1.77;;;5.40;99.90;;;;;;4879876;29;20059;-64
2023/03/30 12:48:17;;;;;;;3.20;1.20;;;5.40;99.90;;;;;;4886221;29;20086;-62
2023/03/30 12:50:59;;;;;;;23.98;2.78;;;5.40;99.90;;;;;;4883988;29;20051;-63
2023/03/30 12:54:07;;;;;;;12.15;2.00;;;5.40;99.90;;;;;;4881845;29;20057;-71
2023/03/30 12:57:06;;;;;;;4.00;1.05;;;5.30;99.90;;;;;;4885604;29;20044;-65
2023/03/30 12:59:58;;;;;;;3.05;1.42;;;5.10;99.90;;;;;;4887576;29;20167;-73
2023/03/30 13:03:01;;;;;;;2.25;0.95;;;5.00;99.90;;;;;;4890240;29;20379;-63
2023/03/30 13:05:39;;;;;;;1.65;1.25;;;4.90;99.90;;;;;;4885219;29;20056;-64
2023/03/30 13:08:28;;;;;;;3.63;1.40;;;4.90;99.90;;;;;;4886559;29;20044;-66
2023/03/30 13:11:15;;;;;;;3.78;1.33;;;4.90;99.90;;;;;;4886403;29;20140;-66
2023/03/30 13:13:59;;;;;;;4.57;1.45;;;5.00;99.90;;;;;;4886060;29;20423;-66
2023/03/30 13:16:51;;;;;;;1.80;1.58;;;5.00;99.90;;;;;;4881908;29;20561;-64
2023/03/30 13:19:31;;;;;;;3.30;1.30;;;5.00;99.90;;;;;;4884906;29;20395;-67
2023/03/30 13:22:22;;;;;;;4.05;1.83;;;5.20;99.90;;;;;;4890427;29;20055;-64
2023/03/30 13:25:16;;;;;;;4.28;2.13;;;5.20;99.90;;;;;;4887350;29;20507;-67
2023/03/30 13:27:43;;;;;;;2.13;1.13;;;5.20;99.90;;;;;;4884341;29;20053;-64
2023/03/30 13:30:13;;;;;;;1.55;1.42;;;5.20;99.90;;;;;;4885257;29;20055;-67
2023/03/30 13:33:11;;;;;;;2.63;1.50;;;5.20;99.90;;;;;;4884875;29;21069;-65
2023/03/30 13:35:52;;;;;;;1.73;1.00;;;5.10;99.90;;;;;;4885083;29;20148;-63
2023/03/30 13:38:47;;;;;;;2.33;1.55;;;5.10;99.90;;;;;;4892501;29;20053;-64
2023/03/30 13:41:37;;;;;;;3.65;1.48;;;5.10;99.90;;;;;;4884018;29;20057;-66
2023/03/30 13:44:31;;;;;;;3.47;1.27;;;5.00;99.90;;;;;;4885087;29;20083;-64
2023/03/30 13:47:26;;;;;;;3.13;1.52;;;4.90;99.90;;;;;;4888532;29;20056;-65
2023/03/30 13:50:03;;;;;;;18.23;3.58;;;4.90;99.90;;;;;;4885469;29;20056;-70
2023/03/30 13:52:32;;;;;;;16.08;3.03;;;4.90;99.90;;;;;;4888751;29;20068;-69